createdAt,value
2018-09-14T00:02:50.293Z,74.30
2018-09-14T00:07:54.022Z,74.80
2018-09-14T00:12:57.744Z,73.80
2018-09-14T00:18:01.376Z,73.10
2018-09-14T00:23:06.320Z,72.50
2018-09-14T00:28:12.133Z,73.80
2018-09-14T00:33:16.542Z,73.40
2018-09-14T00:38:20.140Z,73.40
2018-09-14T00:43:23.800Z,73.20
2018-09-14T00:48:27.923Z,73.60
2018-09-14T00:53:31.795Z,73.50
2018-09-14T00:58:35.436Z,73.60
2018-09-14T01:03:39.860Z,74.00
2018-09-14T01:08:43.577Z,73.60
2018-09-14T01:13:47.499Z,73.90
2018-09-14T01:18:51.128Z,73.00
2018-09-14T01:23:54.760Z,72.70
2018-09-14T01:28:58.599Z,73.10
2018-09-14T01:34:02.505Z,72.70
2018-09-14T01:39:09.371Z,72.50
2018-09-14T01:44:13.063Z,72.50
2018-09-14T01:49:16.676Z,73.00
2018-09-14T01:54:21.180Z,73.00
2018-09-14T01:59:25.832Z,72.90
2018-09-14T02:04:29.487Z,72.80
2018-09-14T02:09:35.282Z,73.70
2018-09-14T02:14:38.979Z,73.30
2018-09-14T02:19:42.563Z,74.00
2018-09-14T02:24:46.416Z,73.50
2018-09-14T02:29:50.304Z,74.20
2018-09-14T02:34:53.883Z,75.20
2018-09-14T02:39:57.517Z,74.90
2018-09-14T02:45:01.452Z,74.00
2018-09-14T02:50:05.493Z,73.50
2018-09-14T02:55:09.975Z,73.20
2018-09-14T03:00:13.709Z,72.70
2018-09-14T03:05:17.389Z,72.70
2018-09-14T03:10:20.968Z,73.30
2018-09-14T03:15:24.575Z,72.80
2018-09-14T03:20:28.203Z,73.00
2018-09-14T03:25:31.829Z,73.40
2018-09-14T03:30:35.825Z,73.00
2018-09-14T03:35:40.169Z,73.20
2018-09-14T03:40:44.065Z,74.00
2018-09-14T03:45:47.706Z,73.60
2018-09-14T03:50:51.288Z,74.50
2018-09-14T03:55:54.957Z,74.70
2018-09-14T04:00:58.539Z,74.40
2018-09-14T04:06:02.144Z,74.50
2018-09-14T04:11:05.766Z,74.70
2018-09-14T04:16:09.323Z,74.40
2018-09-14T04:21:14.619Z,74.40
2018-09-14T04:26:18.351Z,73.90
2018-09-14T04:31:22.271Z,74.20
2018-09-14T04:36:25.925Z,74.20
2018-09-14T04:41:29.659Z,75.00
2018-09-14T04:46:33.271Z,75.20
2018-09-14T04:51:37.203Z,75.90
2018-09-14T04:56:40.795Z,75.80
2018-09-14T05:01:44.492Z,75.50
2018-09-14T05:06:48.833Z,75.60
2018-09-14T05:11:52.475Z,76.10
2018-09-14T05:16:56.263Z,75.30
2018-09-14T05:21:59.838Z,75.30
2018-09-14T05:27:03.395Z,74.60
2018-09-14T05:32:07.038Z,74.50
2018-09-14T05:37:10.644Z,74.20
2018-09-14T05:42:14.241Z,74.30
2018-09-14T05:47:17.839Z,74.30
2018-09-14T05:52:21.496Z,74.60
2018-09-14T05:57:27.357Z,74.20
2018-09-14T06:02:31.014Z,74.10
2018-09-14T06:07:34.785Z,74.30
2018-09-14T06:12:39.969Z,74.50
2018-09-14T06:17:43.568Z,73.60
2018-09-14T06:22:47.185Z,73.80
2018-09-14T06:27:50.736Z,73.90
2018-09-14T06:32:54.355Z,73.90
2018-09-14T06:37:57.987Z,73.40
2018-09-14T06:43:01.583Z,73.40
2018-09-14T06:48:05.648Z,73.50
2018-09-14T06:53:31.519Z,73.50
2018-09-14T06:58:35.199Z,73.70
2018-09-14T07:03:39.455Z,73.20
2018-09-14T07:08:43.082Z,73.40
2018-09-14T07:13:47.119Z,73.10
2018-09-14T07:18:51.378Z,73.10
2018-09-14T07:23:54.996Z,73.40
2018-09-14T07:29:00.612Z,72.80
2018-09-14T07:34:04.168Z,72.30
2018-09-14T07:39:09.371Z,71.60
2018-09-14T07:44:13.025Z,71.20
2018-09-14T07:49:16.603Z,70.60
2018-09-14T07:54:20.215Z,70.20
2018-09-14T07:59:27.482Z,68.30
2018-09-14T08:04:31.335Z,67.70
2018-09-14T08:09:34.948Z,66.00
2018-09-14T08:14:38.988Z,66.70
2018-09-14T08:19:44.512Z,65.40
2018-09-14T08:24:48.108Z,65.00
2018-09-14T08:29:53.360Z,65.80
2018-09-14T08:34:57.049Z,64.20
2018-09-14T08:40:00.737Z,59.70
2018-09-14T08:45:04.632Z,57.90
2018-09-14T08:50:08.275Z,49.50
2018-09-14T08:55:11.948Z,48.30
2018-09-14T09:00:18.213Z,48.60
2018-09-14T09:05:22.240Z,48.50
2018-09-14T09:10:25.905Z,51.20
2018-09-14T09:15:29.549Z,56.30
2018-09-14T09:20:33.516Z,56.90
2018-09-14T09:25:37.247Z,57.90
2018-09-14T09:30:40.832Z,57.90
2018-09-14T09:35:45.463Z,56.50
2018-09-14T09:40:49.163Z,56.10
2018-09-14T09:56:00.445Z,56.40
2018-09-14T10:01:09.686Z,53.50
2018-09-14T10:06:18.726Z,52.00
2018-09-14T10:11:22.776Z,57.10
2018-09-14T10:16:26.457Z,56.30
2018-09-14T10:21:30.144Z,57.60
2018-09-14T10:26:35.246Z,55.00
2018-09-14T10:31:39.257Z,54.10
2018-09-14T10:36:43.715Z,53.60
2018-09-14T10:41:47.723Z,52.30
2018-09-14T10:46:51.712Z,53.50
2018-09-14T10:51:55.268Z,53.90
2018-09-14T10:57:00.085Z,53.70
2018-09-14T11:02:03.668Z,54.30
2018-09-14T11:07:07.423Z,54.80
2018-09-14T11:12:11.357Z,54.90
2018-09-14T11:17:15.047Z,52.70
2018-09-14T11:22:19.064Z,53.30
2018-09-14T11:32:28.145Z,51.90
2018-09-14T11:37:31.748Z,52.50
2018-09-14T11:42:35.290Z,53.10
2018-09-14T11:47:38.915Z,51.50
2018-09-14T11:52:42.594Z,52.60
2018-09-14T12:02:50.985Z,49.10
2018-09-14T12:12:57.988Z,48.60
2018-09-14T12:18:01.651Z,50.40
2018-09-14T12:23:05.335Z,48.80
2018-09-14T12:28:10.207Z,46.00
2018-09-14T12:33:16.304Z,46.30
2018-09-14T12:38:20.084Z,48.80
2018-09-14T12:43:25.892Z,48.90
2018-09-14T12:48:29.543Z,49.00
2018-09-14T12:53:33.270Z,47.20
2018-09-14T12:58:36.991Z,49.00
2018-09-14T13:03:40.657Z,47.40
2018-09-14T13:08:44.596Z,48.10
2018-09-14T13:13:48.995Z,44.80
2018-09-14T13:18:52.635Z,44.20
2018-09-14T13:23:56.632Z,42.00
2018-09-14T13:29:01.283Z,40.60
2018-09-14T13:34:40.285Z,41.00
2018-09-14T13:45:18.430Z,38.80
2018-09-14T13:50:22.803Z,37.00
2018-09-14T14:00:30.552Z,36.80
2018-09-14T14:05:34.352Z,37.30
2018-09-14T14:10:38.381Z,35.20
2018-09-14T14:15:42.023Z,35.90
2018-09-14T14:20:45.953Z,35.70
2018-09-14T14:25:49.656Z,36.00
2018-09-14T14:30:53.794Z,37.10
2018-09-14T14:41:17.838Z,36.90
2018-09-14T14:46:25.489Z,36.70
2018-09-14T14:51:34.174Z,38.50
2018-09-14T14:56:43.678Z,36.90
2018-09-14T15:02:03.739Z,39.10
2018-09-14T15:07:13.559Z,39.90
2018-09-14T15:12:17.367Z,40.60
2018-09-14T15:17:20.939Z,40.90
2018-09-14T15:22:24.562Z,41.90
2018-09-14T15:27:28.941Z,41.80
2018-09-14T15:32:32.591Z,41.70
2018-09-14T15:37:36.212Z,41.70
2018-09-14T15:42:39.832Z,41.60
2018-09-14T15:47:48.594Z,41.00
2018-09-14T15:52:53.687Z,40.80
2018-09-14T15:57:57.444Z,40.50
2018-09-14T16:03:01.803Z,40.70
2018-09-14T16:08:05.810Z,40.50
2018-09-14T16:13:09.520Z,41.10
2018-09-14T16:18:13.126Z,42.00
2018-09-14T16:23:18.657Z,43.10
2018-09-14T16:28:23.419Z,42.90
2018-09-14T16:33:29.173Z,43.00
2018-09-14T16:38:32.911Z,43.10
2018-09-14T16:43:37.578Z,44.40
2018-09-14T16:48:41.213Z,44.00
2018-09-14T16:53:45.201Z,43.20
2018-09-14T16:58:50.337Z,44.30
2018-09-14T17:03:54.031Z,44.40
2018-09-14T17:08:58.415Z,44.50
2018-09-14T17:14:02.225Z,44.90
2018-09-14T17:19:06.129Z,44.80
2018-09-14T17:24:09.723Z,46.60
2018-09-14T17:29:13.374Z,48.60
2018-09-14T17:34:17.103Z,49.10
2018-09-14T17:39:20.751Z,49.30
2018-09-14T17:44:24.382Z,50.60
2018-09-14T17:49:27.981Z,51.00
2018-09-14T17:54:31.916Z,51.80
2018-09-14T17:59:35.535Z,52.40
2018-09-14T18:04:39.177Z,52.80
2018-09-14T18:09:42.923Z,53.50
2018-09-14T18:14:46.657Z,54.00
2018-09-14T18:19:50.279Z,54.30
2018-09-14T18:24:53.980Z,54.90
2018-09-14T18:29:57.986Z,55.40
2018-09-14T18:35:01.822Z,55.30
2018-09-14T18:40:05.998Z,55.20
2018-09-14T18:45:10.205Z,55.10
2018-09-14T18:50:14.666Z,56.30
2018-09-14T18:55:18.426Z,56.50
2018-09-14T19:00:22.036Z,56.80
2018-09-14T19:05:25.819Z,56.70
2018-09-14T19:10:29.495Z,56.90
2018-09-14T19:15:33.129Z,57.30
2018-09-14T19:20:36.936Z,56.90
2018-09-14T19:25:40.512Z,57.20
2018-09-14T19:30:44.747Z,57.10
2018-09-14T19:35:48.602Z,57.70
2018-09-14T19:40:52.429Z,57.10
2018-09-14T19:45:56.352Z,57.80
2018-09-14T19:51:00.845Z,58.30
2018-09-14T19:56:04.553Z,58.70
2018-09-14T20:01:08.224Z,59.00
2018-09-14T20:06:12.035Z,58.50
2018-09-14T20:11:16.125Z,58.40
2018-09-14T20:16:20.156Z,58.20
2018-09-14T20:21:23.969Z,58.30
2018-09-14T20:26:27.803Z,58.70
2018-09-14T20:31:31.665Z,58.50
2018-09-14T20:36:35.364Z,58.80
2018-09-14T20:41:39.127Z,60.00
2018-09-14T20:46:42.920Z,59.90
2018-09-14T20:51:46.589Z,60.60
2018-09-14T20:56:52.324Z,60.00
2018-09-14T21:01:56.183Z,60.80
2018-09-14T21:07:00.167Z,61.40
2018-09-14T21:12:04.048Z,61.70
2018-09-14T21:17:07.651Z,61.20
2018-09-14T21:22:11.849Z,59.80
2018-09-14T21:27:15.464Z,60.00
2018-09-14T21:32:20.161Z,60.30
2018-09-14T21:37:23.773Z,61.40
2018-09-14T21:42:28.054Z,61.70
2018-09-14T21:47:32.191Z,62.00
2018-09-14T21:52:35.793Z,62.10
2018-09-14T21:57:40.328Z,62.40
2018-09-14T22:02:43.922Z,62.90
2018-09-14T22:07:47.613Z,63.00
2018-09-14T22:12:51.391Z,63.50
2018-09-14T22:17:55.090Z,62.70
2018-09-14T22:22:58.668Z,63.60
2018-09-14T22:28:02.509Z,63.90
2018-09-14T22:33:06.325Z,64.20
2018-09-14T22:38:10.425Z,64.70
2018-09-14T22:43:14.693Z,64.20
2018-09-14T22:48:18.293Z,64.60
2018-09-14T22:53:21.936Z,64.70
2018-09-14T22:58:25.886Z,64.50
2018-09-14T23:03:29.625Z,64.10
2018-09-14T23:08:33.237Z,64.80
2018-09-14T23:13:36.850Z,64.80
2018-09-14T23:18:40.477Z,65.00
2018-09-14T23:23:44.028Z,64.90
2018-09-14T23:28:47.649Z,65.20
2018-09-14T23:33:53.142Z,65.40
2018-09-14T23:38:57.323Z,65.40
2018-09-14T23:44:01.633Z,65.50
2018-09-14T23:49:05.287Z,65.30
2018-09-14T23:54:09.738Z,65.30
2018-09-14T23:59:13.314Z,65.50
